Time;durP1;ratioP1;P1;durP2;ratioP2;P2;SDS_P1;SDS_P2;PMS_P1;PMS_P2;Temp;Humidity;BMP_temperature;BMP_pressure;BME280_temperature;BME280_humidity;BME280_pressure;Samples;Min_cycle;Max_cycle;Signal;HPM_P1;HPM_P2
2021/10/22 00:01:36;;;;;;;14.73;7.80;;;;;;;11.03;100.00;99703.68;1672875;84;21086;-71
2021/10/22 00:04:03;;;;;;;13.72;6.70;;;;;;;11.04;100.00;99703.98;1664405;86;21042;-72
2021/10/22 00:06:31;;;;;;;13.32;6.58;;;;;;;11.06;100.00;99706.00;1705626;84;21054;-73
2021/10/22 00:08:59;;;;;;;14.80;6.50;;;;;;;11.08;100.00;99713.41;1668870;86;21011;-72
2021/10/22 00:11:26;;;;;;;14.40;6.40;;;;;;;11.09;100.00;99688.58;1705277;84;21031;-72
2021/10/22 00:13:53;;;;;;;14.70;7.35;;;;;;;11.10;100.00;99693.80;1707110;84;21037;-72
2021/10/22 00:16:21;;;;;;;13.30;7.33;;;;;;;11.12;100.00;99708.48;1705544;84;21079;-72
2021/10/22 00:18:49;;;;;;;12.40;6.10;;;;;;;11.12;100.00;99694.95;1664599;86;21062;-72
2021/10/22 00:21:16;;;;;;;11.78;6.40;;;;;;;11.13;100.00;99686.65;1674442;86;21560;-74
2021/10/22 00:23:46;;;;;;;11.28;6.50;;;;;;;11.13;100.00;99681.23;1672440;85;21105;-72
2021/10/22 00:26:13;;;;;;;13.20;6.10;;;;;;;11.13;100.00;99696.64;1705172;84;21050;-71
2021/10/22 00:28:43;;;;;;;12.70;6.75;;;;;;;11.15;100.00;99685.95;1664444;86;21035;-70
2021/10/22 00:31:10;;;;;;;13.90;6.65;;;;;;;11.15;100.00;99687.83;1705455;84;21043;-70
2021/10/22 00:33:38;;;;;;;11.55;6.12;;;;;;;11.16;100.00;99697.64;1664235;86;21051;-72
2021/10/22 00:36:10;;;;;;;11.33;6.40;;;;;;;11.18;100.00;99690.17;1674395;86;21015;-71
2021/10/22 00:38:38;;;;;;;12.25;6.78;;;;;;;11.19;100.00;99688.64;1661087;85;21083;-71
2021/10/22 00:41:05;;;;;;;12.20;7.28;;;;;;;11.19;100.00;99683.23;1683598;85;21102;-70
2021/10/22 00:43:33;;;;;;;12.90;6.60;;;;;;;11.19;100.00;99679.17;1659446;85;21602;-73
2021/10/22 00:46:00;;;;;;;12.30;6.83;;;;;;;11.21;100.00;99688.46;1670874;83;21035;-71
2021/10/22 00:48:27;;;;;;;14.43;7.20;;;;;;;11.23;100.00;99677.45;1659045;85;21074;-73
2021/10/22 00:50:59;;;;;;;11.65;7.55;;;;;;;11.21;100.00;99681.17;1658229;85;21026;-73
2021/10/22 00:53:27;;;;;;;12.85;7.50;;;;;;;11.23;100.00;99692.34;1591583;89;21119;-72
2021/10/22 00:55:54;;;;;;;16.35;7.12;;;;;;;11.22;100.00;99673.89;1675783;85;21092;-73
2021/10/22 00:58:24;;;;;;;12.98;7.10;;;;;;;11.24;100.00;99671.00;1651096;86;21085;-71
2021/10/22 01:00:51;;;;;;;12.15;6.95;;;;;;;11.25;100.00;99680.81;1667220;85;21013;-72
2021/10/22 01:03:18;;;;;;;13.53;6.80;;;;;;;11.25;100.00;99673.53;1676619;85;21094;-73
2021/10/22 01:05:46;;;;;;;15.43;8.08;;;;;;;11.27;100.00;99658.46;1671084;86;21136;-72
2021/10/22 01:08:13;;;;;;;15.10;8.23;;;;;;;11.28;100.00;99661.48;1651382;87;21070;-70
2021/10/22 01:10:40;;;;;;;13.35;7.40;;;;;;;11.28;100.00;99652.00;1648539;87;21024;-72
2021/10/22 01:13:09;;;;;;;13.72;7.25;;;;;;;11.28;100.00;99666.89;1599635;88;21211;-73
2021/10/22 01:15:37;;;;;;;20.23;8.33;;;;;;;11.28;100.00;99669.59;1648144;87;21027;-72
2021/10/22 01:18:06;;;;;;;14.47;7.60;;;;;;;11.30;100.00;99678.40;1665125;86;21052;-73
2021/10/22 01:20:39;;;;;;;13.35;7.70;;;;;;;11.30;100.00;99671.63;1671545;86;21166;-72
2021/10/22 01:23:06;;;;;;;14.07;7.77;;;;;;;11.31;100.00;99686.83;1649215;87;21055;-72
2021/10/22 01:25:33;;;;;;;14.55;7.40;;;;;;;11.30;100.00;99681.94;1648765;87;21575;-69
2021/10/22 01:28:00;;;;;;;12.53;7.30;;;;;;;11.33;100.00;99686.13;1626907;87;21079;-72
2021/10/22 01:30:28;;;;;;;15.00;7.50;;;;;;;11.34;100.00;99683.76;1648736;87;21015;-72
2021/10/22 01:33:05;;;;;;;13.45;7.83;;;;;;;11.35;100.00;99690.84;1648635;87;21100;-72
2021/10/22 01:35:32;;;;;;;11.83;6.95;;;;;;;11.36;100.00;99687.12;1587768;87;21449;-73
2021/10/22 01:37:59;;;;;;;18.55;7.42;;;;;;;11.37;100.00;99682.88;1638484;87;21082;-73
2021/10/22 01:40:27;;;;;;;15.18;7.45;;;;;;;11.38;100.00;99688.63;1629840;88;21042;-71
2021/10/22 01:42:54;;;;;;;16.27;6.97;;;;;;;11.39;100.00;99680.82;1637427;88;21590;-73
2021/10/22 01:45:22;;;;;;;13.53;7.17;;;;;;;11.40;100.00;99681.16;1649234;87;21014;-71
2021/10/22 01:47:50;;;;;;;13.25;7.78;;;;;;;11.40;100.00;99683.87;1648946;87;21050;-72
2021/10/22 01:50:17;;;;;;;15.30;7.65;;;;;;;11.42;100.00;99680.98;1639360;87;21077;-71
2021/10/22 01:52:46;;;;;;;13.05;6.85;;;;;;;11.42;100.00;99685.53;1674438;86;21534;-72
2021/10/22 01:55:13;;;;;;;15.05;7.83;;;;;;;11.43;100.00;99686.70;1672142;85;21066;-72
2021/10/22 01:57:41;;;;;;;15.65;7.35;;;;;;;11.42;100.00;99672.00;1621408;86;21070;-71
2021/10/22 02:00:10;;;;;;;15.40;7.47;;;;;;;11.43;100.00;99676.40;1665667;86;21491;-70
2021/10/22 02:02:40;;;;;;;15.35;6.70;;;;;;;11.43;100.00;99699.41;1646217;87;21663;-71
2021/10/22 02:05:07;;;;;;;11.75;7.20;;;;;;;11.43;100.00;99700.24;1679321;85;21042;-73
2021/10/22 02:07:34;;;;;;;13.13;7.10;;;;;;;11.46;100.00;99684.98;1679627;85;21530;-70
2021/10/22 02:10:01;;;;;;;15.98;7.45;;;;;;;11.46;100.00;99695.81;1659927;85;21034;-72
2021/10/22 02:12:28;;;;;;;12.78;7.22;;;;;;;11.48;100.00;99696.99;1684090;85;21054;-71
2021/10/22 02:14:55;;;;;;;13.35;6.72;;;;;;;11.49;100.00;99700.88;1683854;85;21046;-72
2021/10/22 02:17:24;;;;;;;15.23;7.47;;;;;;;11.50;100.00;99692.23;1683720;85;21063;-73
2021/10/22 02:19:51;;;;;;;16.80;7.92;;;;;;;11.52;100.00;99682.05;1683871;85;21099;-73
2021/10/22 02:22:20;;;;;;;14.20;7.28;;;;;;;11.52;100.00;99679.34;1683866;85;21566;-72
2021/10/22 02:24:46;;;;;;;14.35;7.28;;;;;;;11.51;100.00;99683.92;1734780;82;21025;-72
2021/10/22 02:27:15;;;;;;;10.72;6.53;;;;;;;11.51;100.00;99671.73;1734765;83;21040;-70
2021/10/22 02:29:42;;;;;;;13.68;6.87;;;;;;;11.52;100.00;99667.98;1723904;83;21058;-71
2021/10/22 02:32:09;;;;;;;12.93;6.80;;;;;;;11.53;100.00;99668.84;1687723;85;21038;-70
2021/10/22 02:34:36;;;;;;;14.73;7.50;;;;;;;11.54;100.00;99665.95;1692749;85;21090;-71
2021/10/22 02:37:03;;;;;;;13.53;7.53;;;;;;;11.55;100.00;99669.50;1692415;85;21050;-68
2021/10/22 02:39:34;;;;;;;14.65;7.62;;;;;;;11.56;100.00;99674.73;1675130;85;21026;-71
2021/10/22 02:42:01;;;;;;;12.78;7.00;;;;;;;11.58;100.00;99673.19;1687466;85;21058;-70
2021/10/22 02:44:28;;;;;;;15.83;8.00;;;;;;;11.57;100.00;99676.39;1688444;85;21574;-70
2021/10/22 02:46:56;;;;;;;14.85;7.40;;;;;;;11.60;100.00;99686.03;1676235;85;21534;-69
2021/10/22 02:49:23;;;;;;;16.67;7.47;;;;;;;11.62;100.00;99683.14;1692242;85;21609;-71
2021/10/22 02:51:50;;;;;;;20.00;9.55;;;;;;;11.63;100.00;99682.92;1645112;86;21561;-70
2021/10/22 02:54:18;;;;;;;17.10;8.73;;;;;;;11.66;100.00;99686.63;1666717;85;21066;-71
2021/10/22 02:56:45;;;;;;;16.87;8.55;;;;;;;11.67;100.00;99671.20;1660585;86;21096;-70
2021/10/22 02:59:14;;;;;;;13.50;7.72;;;;;;;11.66;100.00;99664.95;1659443;86;21097;-70
2021/10/22 03:01:42;;;;;;;15.90;7.97;;;;;;;11.68;100.00;99659.36;1659249;86;21072;-70
2021/10/22 03:04:10;;;;;;;17.20;9.15;;;;;;;11.69;100.00;99638.86;1645878;86;21091;-70
2021/10/22 03:06:39;;;;;;;23.45;10.53;;;;;;;11.68;100.00;99645.29;1647027;86;21067;-71
2021/10/22 03:09:06;;;;;;;18.23;9.35;;;;;;;11.68;100.00;99653.94;1646833;86;21024;-72
2021/10/22 03:11:33;;;;;;;18.65;8.15;;;;;;;11.69;100.00;99651.57;1668364;86;21008;-71
2021/10/22 03:14:00;;;;;;;13.70;7.72;;;;;;;11.71;100.00;99650.86;1668411;86;21012;-69
2021/10/22 03:16:27;;;;;;;15.10;7.70;;;;;;;11.70;100.00;99647.81;1647228;86;21091;-71
2021/10/22 03:18:56;;;;;;;16.37;9.25;;;;;;;11.69;100.00;99644.27;1647036;86;21080;-70
2021/10/22 03:21:23;;;;;;;16.70;9.95;;;;;;;11.69;100.00;99649.69;1668123;86;21118;-71
2021/10/22 03:23:55;;;;;;;15.90;8.35;;;;;;;11.68;100.00;99652.06;1668175;86;21063;-70
2021/10/22 03:26:19;;;;;;;16.67;6.70;;;;;;;11.69;100.00;99649.69;1643655;86;21548;-72
2021/10/22 03:28:46;;;;;;;13.48;7.05;;;;;;;11.69;100.00;99656.46;1668218;86;21631;-69
2021/10/22 03:31:13;;;;;;;15.83;7.87;;;;;;;11.70;100.00;99666.77;1668125;86;21051;-72
2021/10/22 03:33:41;;;;;;;17.20;8.15;;;;;;;11.70;100.00;99666.77;1668065;86;21524;-69
2021/10/22 03:36:08;;;;;;;15.00;7.15;;;;;;;11.68;100.00;99662.89;1647100;86;21544;-71
2021/10/22 03:38:36;;;;;;;13.40;7.08;;;;;;;11.67;100.00;99661.23;1668349;86;21057;-73
2021/10/22 03:41:03;;;;;;;11.12;6.70;;;;;;;11.68;100.00;99656.65;1668288;86;21087;-69
2021/10/22 03:43:30;;;;;;;18.87;8.18;;;;;;;11.67;100.00;99668.49;1668263;86;21012;-69
2021/10/22 03:45:57;;;;;;;17.92;8.43;;;;;;;11.65;100.00;99670.06;1667911;86;21071;-71
2021/10/22 03:48:24;;;;;;;19.65;8.75;;;;;;;11.64;100.00;99665.66;1668344;86;21008;-70
2021/10/22 03:50:51;;;;;;;14.73;7.65;;;;;;;11.63;100.00;99672.09;1643685;86;20971;-71
2021/10/22 03:53:19;;;;;;;16.52;7.67;;;;;;;11.63;100.00;99675.32;1650555;85;21050;-71
2021/10/22 03:55:47;;;;;;;17.35;7.62;;;;;;;11.62;100.00;99667.72;1681821;85;21056;-71
2021/10/22 03:58:14;;;;;;;17.52;8.68;;;;;;;11.62;100.00;99666.37;1696195;83;21510;-70
2021/10/22 04:00:41;;;;;;;14.83;8.75;;;;;;;11.61;100.00;99666.55;1699022;83;21081;-72
2021/10/22 04:03:08;;;;;;;14.43;7.90;;;;;;;11.58;100.00;99681.31;1698993;83;21022;-70
2021/10/22 04:05:35;;;;;;;13.83;7.37;;;;;;;11.57;100.00;99685.04;1732680;83;21573;-71
2021/10/22 04:08:03;;;;;;;16.90;7.67;;;;;;;11.56;100.00;99688.76;1698842;83;21578;-71
2021/10/22 04:10:30;;;;;;;14.73;7.72;;;;;;;11.55;100.00;99687.93;1733090;83;21093;-70
2021/10/22 04:12:57;;;;;;;17.35;8.68;;;;;;;11.54;100.00;99701.16;1733015;83;21030;-71
2021/10/22 04:15:24;;;;;;;16.87;8.53;;;;;;;11.53;100.00;99704.05;1733266;83;21038;-70
2021/10/22 04:17:53;;;;;;;15.00;7.80;;;;;;;11.54;100.00;99709.77;1676558;83;21110;-74
2021/10/22 04:20:20;;;;;;;13.68;7.83;;;;;;;11.53;100.00;99721.13;1699002;83;21050;-69
2021/10/22 04:22:48;;;;;;;16.10;7.95;;;;;;;11.53;100.00;99721.64;1698943;83;21550;-70
2021/10/22 04:25:15;;;;;;;31.57;10.28;;;;;;;11.54;100.00;99716.05;1698788;83;21534;-70
2021/10/22 04:27:42;;;;;;;19.75;9.15;;;;;;;11.54;100.00;99724.66;1723863;83;21514;-70
2021/10/22 04:30:10;;;;;;;16.35;8.53;;;;;;;11.52;100.00;99716.72;1732880;83;21022;-71
2021/10/22 04:32:37;;;;;;;15.03;8.50;;;;;;;11.52;100.00;99719.95;1732984;83;21522;-69
2021/10/22 04:35:05;;;;;;;17.52;8.58;;;;;;;11.51;100.00;99716.91;1698945;83;21510;-70
2021/10/22 04:37:33;;;;;;;16.07;8.70;;;;;;;11.52;100.00;99721.30;1733018;83;21058;-70
2021/10/22 04:42:49;;;;;;;17.98;9.00;;;;;;;11.53;100.00;99739.25;1732954;83;21018;-71
2021/10/22 04:45:18;;;;;;;19.62;8.45;;;;;;;11.53;100.00;99740.60;1732948;83;21054;-69
2021/10/22 04:47:46;;;;;;;16.12;8.65;;;;;;;11.54;100.00;99741.77;1732942;83;21050;-70
2021/10/22 04:50:13;;;;;;;16.93;9.35;;;;;;;11.56;100.00;99749.20;1691320;84;21038;-69
2021/10/22 04:52:41;;;;;;;16.32;9.35;;;;;;;11.56;100.00;99750.55;1661216;86;21099;-69
2021/10/22 04:55:10;;;;;;;17.77;9.08;;;;;;;11.54;100.00;99750.39;1674249;85;21102;-69
2021/10/22 04:57:37;;;;;;;18.10;8.98;;;;;;;11.55;100.00;99747.50;1679937;85;21091;-69
2021/10/22 05:00:06;;;;;;;21.00;10.68;;;;;;;11.57;100.00;99748.15;1660671;85;21058;-69
2021/10/22 05:02:34;;;;;;;18.20;10.15;;;;;;;11.57;100.00;99753.56;1715045;82;21554;-68
2021/10/22 05:05:02;;;;;;;18.60;9.43;;;;;;;11.57;100.00;99758.98;1662881;85;20995;-70
2021/10/22 05:07:29;;;;;;;20.48;11.43;;;;;;;11.60;100.00;99755.08;1683737;85;21062;-68
2021/10/22 05:09:56;;;;;;;25.12;9.70;;;;;;;11.63;100.00;99750.63;1683674;83;21062;-70
2021/10/22 05:12:24;;;;;;;21.73;11.97;;;;;;;11.64;100.00;99744.72;1683642;85;21161;-69
2021/10/22 05:14:51;;;;;;;24.02;12.65;;;;;;;11.67;100.00;99753.80;1683725;85;20979;-69
2021/10/22 05:17:19;;;;;;;20.48;10.43;;;;;;;11.69;100.00;99747.19;1683494;85;21015;-71
2021/10/22 05:19:46;;;;;;;18.52;9.85;;;;;;;11.70;100.00;99757.50;1683712;85;21011;-70
2021/10/22 05:22:13;;;;;;;17.92;9.43;;;;;;;11.68;100.00;99757.69;1684998;85;20979;-69
2021/10/22 05:24:40;;;;;;;22.90;10.32;;;;;;;11.69;100.00;99759.38;1684790;85;21034;-70
2021/10/22 05:27:08;;;;;;;19.90;9.55;;;;;;;11.71;100.00;99762.73;1683682;85;21510;-70
2021/10/22 05:29:35;;;;;;;21.15;9.80;;;;;;;11.72;100.00;99759.02;1685294;85;21070;-69
2021/10/22 05:32:04;;;;;;;17.35;9.08;;;;;;;11.71;100.00;99763.27;1684951;84;21074;-71
2021/10/22 05:34:31;;;;;;;19.90;9.65;;;;;;;11.70;100.00;99754.80;1685016;85;21495;-72
2021/10/22 05:36:59;;;;;;;19.90;9.20;;;;;;;11.67;100.00;99751.09;1678030;85;21046;-70
2021/10/22 05:39:27;;;;;;;21.87;10.60;;;;;;;11.67;100.00;99751.95;1682920;85;21488;-69
2021/10/22 05:41:54;;;;;;;21.02;9.78;;;;;;;11.68;100.00;99760.39;1681666;84;21014;-70
2021/10/22 05:44:23;;;;;;;18.40;9.35;;;;;;;11.72;100.00;99762.22;1675440;85;21476;-71
2021/10/22 05:46:55;;;;;;;17.95;8.25;;;;;;;11.77;100.00;99751.18;1680253;85;21024;-71
2021/10/22 05:49:23;;;;;;;18.60;8.75;;;;;;;11.81;100.00;99762.48;1658181;85;21063;-69
2021/10/22 05:51:50;;;;;;;20.88;9.18;;;;;;;11.83;100.00;99760.91;1680935;85;21051;-69
2021/10/22 05:54:18;;;;;;;18.80;9.03;;;;;;;11.84;100.00;99768.86;1642262;85;21040;-70
2021/10/22 05:56:45;;;;;;;17.00;9.18;;;;;;;11.89;100.00;99765.61;1681934;85;21091;-69
2021/10/22 05:59:13;;;;;;;17.95;8.63;;;;;;;11.90;100.00;99764.10;1642434;87;21037;-71
2021/10/22 06:01:40;;;;;;;15.55;8.68;;;;;;;11.92;100.00;99753.91;1678562;85;21038;-69
2021/10/22 06:04:08;;;;;;;18.17;9.20;;;;;;;11.92;100.00;99747.14;1656570;85;21091;-69
2021/10/22 06:06:35;;;;;;;20.80;9.75;;;;;;;11.96;100.00;99753.86;1639348;86;21098;-70
2021/10/22 06:09:03;;;;;;;22.32;9.88;;;;;;;12.00;100.00;99742.13;1707356;84;21015;-69
2021/10/22 06:11:30;;;;;;;21.40;10.03;;;;;;;12.04;100.00;99735.33;1674819;83;21306;-69
2021/10/22 06:13:57;;;;;;;17.98;9.58;;;;;;;12.08;100.00;99721.72;1705313;84;21022;-71
2021/10/22 06:16:24;;;;;;;17.00;9.48;;;;;;;12.15;100.00;99726.70;1681774;83;21067;-70
2021/10/22 06:18:59;;;;;;;18.55;9.00;;;;;;;12.25;100.00;99729.14;1699932;82;21135;-68
2021/10/22 06:21:31;;;;;;;19.02;9.28;;;;;;;12.40;100.00;99730.97;1710212;82;21535;-70
2021/10/22 06:24:02;;;;;;;16.55;8.63;;;;;;;12.49;100.00;99729.82;1707816;83;21063;-71
2021/10/22 06:26:35;;;;;;;21.37;10.63;;;;;;;12.60;100.00;99741.52;1705564;82;21089;-72
2021/10/22 06:29:04;;;;;;;19.77;9.40;;;;;;;12.87;100.00;99777.94;1671884;85;21568;-71
2021/10/22 06:31:31;;;;;;;20.77;8.80;;;;;;;12.87;100.00;99777.94;1643446;85;21456;-70
2021/10/22 06:33:59;;;;;;;20.25;8.60;;;;;;;13.01;100.00;99787.55;1679336;84;21551;-70
2021/10/22 06:36:27;;;;;;;23.65;10.95;;;;;;;13.11;100.00;99804.36;1687523;84;21066;-71
2021/10/22 06:38:53;;;;;;;21.90;8.98;;;;;;;13.14;100.00;99798.56;1687283;83;21565;-71
2021/10/22 06:41:20;;;;;;;19.15;9.65;;;;;;;13.10;100.00;99775.03;1681857;85;21065;-69
2021/10/22 06:43:47;;;;;;;17.90;8.20;;;;;;;13.04;100.00;99791.25;1682392;85;21135;-71
2021/10/22 06:46:16;;;;;;;21.15;9.90;;;;;;;13.06;100.00;99794.59;1684706;84;21593;-71
2021/10/22 06:48:44;;;;;;;19.20;9.13;;;;;;;13.06;100.00;99783.22;1677266;83;21034;-72
2021/10/22 06:51:12;;;;;;;16.90;8.78;;;;;;;13.05;100.00;99792.91;1674895;84;21707;-71
2021/10/22 06:53:39;;;;;;;19.82;8.98;;;;;;;13.06;100.00;99796.79;1678425;84;21065;-71
2021/10/22 06:56:07;;;;;;;21.65;9.10;;;;;;;13.01;100.00;99793.81;1684233;85;21054;-71
2021/10/22 06:58:34;;;;;;;18.80;10.10;;;;;;;12.98;100.00;99805.57;1679229;83;21028;-71
2021/10/22 07:01:01;;;;;;;23.15;10.82;;;;;;;12.97;100.00;99809.34;1683278;83;21074;-72
2021/10/22 07:03:28;;;;;;;19.25;9.55;;;;;;;12.98;100.00;99820.00;1682236;83;21599;-72
2021/10/22 07:08:25;;;;;;;19.20;9.80;;;;;;;13.13;100.00;99812.31;1650051;86;21017;-72
2021/10/22 07:10:52;;;;;;;18.30;9.43;;;;;;;13.24;100.00;99814.02;1628437;86;21019;-70
2021/10/22 07:13:21;;;;;;;23.57;11.10;;;;;;;13.41;100.00;99802.91;1655380;85;21057;-71
2021/10/22 07:15:48;;;;;;;23.65;10.30;;;;;;;13.65;100.00;99805.20;1654399;86;21089;-73
2021/10/22 07:18:15;;;;;;;23.47;9.63;;;;;;;13.84;100.00;99791.42;1634167;86;21078;-70
2021/10/22 07:20:42;;;;;;;20.25;9.93;;;;;;;14.08;100.00;99796.59;1652965;85;21100;-74
2021/10/22 07:23:11;;;;;;;18.67;9.60;;;;;;;14.31;100.00;99794.44;1652620;85;21693;-72
2021/10/22 07:25:41;;;;;;;20.40;10.25;;;;;;;14.50;100.00;99782.48;1662929;85;21086;-71
2021/10/22 07:28:17;;;;;;;19.35;8.93;;;;;;;14.61;100.00;99768.34;1645816;86;21057;-73
2021/10/22 07:30:46;;;;;;;18.42;9.03;;;;;;;14.73;100.00;99759.91;1608003;86;21536;-67
2021/10/22 07:33:15;;;;;;;19.95;8.85;;;;;;;14.79;100.00;99756.34;1614945;87;21106;-68
2021/10/22 07:35:43;;;;;;;20.20;8.80;;;;;;;14.81;100.00;99755.61;1618413;87;21098;-72
2021/10/22 07:38:11;;;;;;;22.00;8.73;;;;;;;14.79;100.00;99758.23;1646492;86;21050;-71
2021/10/22 07:40:40;;;;;;;24.70;9.83;;;;;;;14.80;100.00;99762.63;1629013;86;21042;-76
2021/10/22 07:43:09;;;;;;;21.62;8.63;;;;;;;14.87;100.00;99759.39;1620835;86;21129;-68
2021/10/22 07:45:37;;;;;;;15.05;8.08;;;;;;;14.95;100.00;99766.55;1640207;85;21090;-68
2021/10/22 07:48:05;;;;;;;19.37;9.13;;;;;;;15.07;100.00;99764.03;1640282;87;21132;-68
2021/10/22 07:50:32;;;;;;;20.17;9.53;;;;;;;15.14;100.00;99761.66;1616987;87;21109;-70
2021/10/22 07:52:59;;;;;;;18.50;8.35;;;;;;;15.31;100.00;99774.86;1616755;87;20962;-69
2021/10/22 07:55:26;;;;;;;18.17;9.20;;;;;;;15.47;100.00;99768.16;1618812;85;21764;-71
2021/10/22 07:57:53;;;;;;;19.27;8.78;;;;;;;15.69;100.00;99765.53;1644153;85;21563;-71
2021/10/22 08:00:20;;;;;;;19.15;9.00;;;;;;;15.83;100.00;99764.17;1651173;85;21608;-72
2021/10/22 08:02:48;;;;;;;16.32;9.05;;;;;;;15.92;100.00;99762.92;1619653;88;21129;-72
2021/10/22 08:05:15;;;;;;;26.12;11.38;;;;;;;15.92;100.00;99750.11;1616314;88;21189;-75
2021/10/22 08:07:42;;;;;;;23.38;11.05;;;;;;;15.92;100.00;99750.11;1605387;88;21590;-77
2021/10/22 08:10:09;;;;;;;24.02;11.97;;;;;;;15.96;100.00;99763.33;1612843;87;21027;-73
2021/10/22 08:12:36;;;;;;;24.43;11.83;;;;;;;16.05;100.00;99760.14;1671489;85;21010;-72
2021/10/22 08:15:06;;;;;;;23.35;10.55;;;;;;;16.15;100.00;99755.63;1645043;86;21033;-73
2021/10/22 08:17:33;;;;;;;23.83;10.85;;;;;;;16.26;100.00;99754.11;1644362;86;21007;-73
2021/10/22 08:20:16;;;;;;;21.90;10.05;;;;;;;16.40;100.00;99753.55;1647382;86;21090;-74
2021/10/22 08:22:40;;;;;;;20.57;9.20;;;;;;;16.59;100.00;99748.52;1661945;85;20970;-78
2021/10/22 08:25:12;;;;;;;20.02;8.98;;;;;;;16.69;100.00;99757.59;1650827;85;21585;-77
2021/10/22 08:27:47;;;;;;;25.75;15.10;;;;;;;16.75;100.00;99750.41;1671021;85;21015;-76
2021/10/22 08:30:20;;;;;;;15.72;8.58;;;;;;;16.92;100.00;99752.15;1668671;85;21601;-74
2021/10/22 08:32:51;;;;;;;23.03;10.07;;;;;;;17.04;100.00;99743.02;1666219;84;21588;-72
2021/10/22 08:35:20;;;;;;;22.17;10.88;;;;;;;17.04;100.00;99755.31;1700354;83;21259;-73
2021/10/22 08:37:48;;;;;;;21.50;10.60;;;;;;;17.18;100.00;99755.23;1713816;83;21106;-71
2021/10/22 08:40:16;;;;;;;23.30;10.80;;;;;;;17.32;100.00;99750.52;1692329;84;21093;-73
2021/10/22 08:42:48;;;;;;;19.75;9.38;;;;;;;17.46;100.00;99747.97;1716121;83;21073;-72
2021/10/22 08:45:17;;;;;;;27.27;10.40;;;;;;;17.58;100.00;99747.55;1692282;84;21058;-71
2021/10/22 08:47:44;;;;;;;19.32;10.03;;;;;;;17.69;100.00;99758.28;1690888;83;20986;-74
2021/10/22 08:50:15;;;;;;;22.25;10.03;;;;;;;17.56;100.00;99759.75;1688422;84;21460;-72
2021/10/22 08:52:43;;;;;;;24.98;11.00;;;;;;;17.55;100.00;99759.47;1662946;86;21030;-71
2021/10/22 08:55:10;;;;;;;17.15;9.53;;;;;;;17.75;100.00;99762.00;1656804;86;21050;-72
2021/10/22 08:57:42;;;;;;;19.92;9.78;;;;;;;17.90;100.00;99749.36;1648498;86;21250;-72
2021/10/22 09:00:16;;;;;;;21.65;10.03;;;;;;;17.91;100.00;99748.31;1630147;87;21104;-75
2021/10/22 09:02:46;;;;;;;21.15;9.70;;;;;;;17.94;100.00;99742.40;1549105;92;21156;-67
2021/10/22 09:05:20;;;;;;;21.15;9.63;;;;;;;18.16;100.00;99743.59;1536353;91;21212;-71
2021/10/22 09:07:55;;;;;;;17.65;9.35;;;;;;;18.27;100.00;99751.58;1533066;93;21099;-74
2021/10/22 09:10:27;;;;;;;18.60;10.53;;;;;;;18.31;100.00;99750.58;1452771;98;21091;-72
2021/10/22 09:12:58;;;;;;;23.07;11.57;;;;;;;18.34;100.00;99743.29;1449142;97;21207;-71
2021/10/22 09:15:38;;;;;;;22.17;10.18;;;;;;;18.50;100.00;99741.31;1451624;97;21260;-73
2021/10/22 09:18:23;;;;;;;15.10;9.33;;;;;;;18.85;100.00;99744.75;1451615;98;21161;-71
2021/10/22 09:21:02;;;;;;;21.05;11.80;;;;;;;19.10;100.00;99732.80;1447936;98;21174;-68
2021/10/22 09:23:35;;;;;;;19.98;10.15;;;;;;;19.14;100.00;99732.11;1428610;100;21068;-72
2021/10/22 09:26:23;;;;;;;23.67;10.53;;;;;;;19.10;100.00;99728.69;1454783;97;21130;-71
2021/10/22 09:28:49;;;;;;;22.40;10.35;;;;;;;19.13;100.00;99733.70;1458391;97;21133;-72
2021/10/22 09:31:18;;;;;;;23.22;10.65;;;;;;;19.13;100.00;99724.94;1434345;99;22442;-72
2021/10/22 09:33:57;;;;;;;20.92;10.43;;;;;;;19.02;100.00;99726.30;1425421;100;21188;-71
2021/10/22 09:36:36;;;;;;;23.98;11.48;;;;;;;19.03;100.00;99719.73;1425009;100;21090;-71
2021/10/22 09:39:18;;;;;;;19.90;10.60;;;;;;;19.13;100.00;99722.20;1452701;97;21082;-74
2021/10/22 09:41:58;;;;;;;19.07;10.45;;;;;;;19.29;100.00;99733.02;1434290;96;21124;-73
2021/10/22 09:44:28;;;;;;;19.77;10.20;;;;;;;19.24;100.00;99721.09;1414449;100;21221;-72
2021/10/22 09:47:10;;;;;;;21.00;10.25;;;;;;;19.34;100.00;99715.88;1396709;101;21156;-72
2021/10/22 09:52:27;;;;;;;21.15;10.90;;;;;;;19.55;100.00;99714.46;1367410;102;21208;-74
2021/10/22 09:55:14;;;;;;;22.45;10.95;;;;;;;19.58;100.00;99720.81;1392090;102;21594;-73
2021/10/22 09:57:45;;;;;;;25.10;13.05;;;;;;;19.66;100.00;99718.27;1417195;98;21635;-74
2021/10/22 10:00:22;;;;;;;19.05;10.75;;;;;;;19.71;100.00;99716.48;1422392;100;21159;-73
2021/10/22 10:02:49;;;;;;;20.27;11.03;;;;;;;19.84;100.00;99718.71;1400984;102;21142;-72
2021/10/22 10:05:18;;;;;;;22.35;11.18;;;;;;;19.88;100.00;99713.88;1420052;99;21215;-73
2021/10/22 10:07:46;;;;;;;22.85;10.80;;;;;;;19.94;100.00;99706.59;1480561;96;21157;-75
2021/10/22 10:10:13;;;;;;;20.43;11.03;;;;;;;20.10;100.00;99712.70;1497482;94;21113;-75
2021/10/22 10:12:41;;;;;;;23.92;10.58;;;;;;;20.23;100.00;99712.14;1498048;94;21066;-73
2021/10/22 10:15:10;;;;;;;20.70;10.50;;;;;;;20.26;100.00;99706.17;1514761;93;21089;-74
2021/10/22 10:17:46;;;;;;;20.05;10.32;;;;;;;20.20;100.00;99712.61;1496025;94;21200;-66
2021/10/22 10:20:18;;;;;;;19.60;10.72;;;;;;;20.23;100.00;99709.39;1436071;97;21120;-76
2021/10/22 10:22:49;;;;;;;19.65;10.30;;;;;;;20.35;100.00;99701.95;1466980;97;21222;-75
2021/10/22 10:25:22;;;;;;;20.52;10.53;;;;;;;20.34;100.00;99704.95;1487417;95;21105;-74
2021/10/22 10:27:56;;;;;;;22.50;10.68;;;;;;;20.32;100.00;99705.19;1473407;97;21065;-72
2021/10/22 10:30:33;;;;;;;18.60;9.85;;;;;;;20.40;100.00;99706.19;1463067;96;21098;-75
2021/10/22 10:33:01;;;;;;;23.65;10.48;;;;;;;20.71;100.00;99705.42;1472181;96;21105;-73
2021/10/22 10:35:39;;;;;;;18.60;9.95;;;;;;;20.96;100.00;99711.92;1464772;96;21157;-76
2021/10/22 10:38:08;;;;;;;20.97;9.73;;;;;;;21.12;100.00;99719.06;1463019;96;21375;-77
2021/10/22 10:40:36;;;;;;;22.82;10.08;;;;;;;21.17;100.00;99708.98;1473273;96;21191;-74
2021/10/22 10:43:24;;;;;;;18.25;9.53;;;;;;;20.95;100.00;99708.07;1469686;96;21068;-75
2021/10/22 10:45:55;;;;;;;20.10;9.88;;;;;;;20.84;100.00;99715.27;1466381;96;21187;-73
2021/10/22 10:48:22;;;;;;;25.90;11.43;;;;;;;20.81;100.00;99711.11;1470382;96;21595;-73
2021/10/22 10:50:57;;;;;;;17.87;10.08;;;;;;;20.91;100.00;99711.86;1469263;96;21090;-73
2021/10/22 10:53:41;;;;;;;20.85;10.23;;;;;;;20.98;100.00;99702.05;1470611;96;21088;-73
2021/10/22 10:56:27;;;;;;;19.23;9.55;;;;;;;21.04;100.00;99706.58;1526817;91;21171;-72
2021/10/22 10:58:56;;;;;;;20.85;9.83;;;;;;;21.18;100.00;99707.09;1571729;91;21107;-77
2021/10/22 11:01:32;;;;;;;19.80;9.45;;;;;;;21.23;100.00;99701.13;1545398;91;21121;-78
2021/10/22 11:03:59;;;;;;;18.23;9.80;;;;;;;21.16;100.00;99702.36;1563354;91;21713;-72
2021/10/22 11:06:52;;;;;;;22.82;10.25;;;;;;;20.97;100.00;99696.28;1552709;92;21190;-74
2021/10/22 11:09:43;;;;;;;25.30;11.78;;;;;;;21.03;100.00;99698.03;1557835;92;21109;-75
2021/10/22 11:12:09;;;;;;;21.73;11.10;;;;;;;21.13;100.00;99693.26;1558519;92;21566;-71
2021/10/22 11:14:48;;;;;;;20.52;10.95;;;;;;;21.20;100.00;99696.13;1581508;90;21080;-72
2021/10/22 11:17:27;;;;;;;27.87;11.45;;;;;;;21.02;100.00;99693.63;1574927;90;21314;-75
2021/10/22 11:19:57;;;;;;;20.65;11.80;;;;;;;20.89;100.00;99689.81;1585245;90;21090;-74
2021/10/22 11:22:27;;;;;;;21.23;10.85;;;;;;;20.69;100.00;99700.72;1584905;89;21583;-74
2021/10/22 11:24:57;;;;;;;25.68;11.10;;;;;;;20.62;100.00;99698.12;1584823;89;21053;-73
2021/10/22 11:27:25;;;;;;;33.67;11.73;;;;;;;20.68;100.00;99690.80;1584680;90;21122;-75
2021/10/22 11:29:54;;;;;;;22.22;10.72;;;;;;;20.77;100.00;99698.95;1584616;89;21014;-74
2021/10/22 11:32:25;;;;;;;20.50;10.40;;;;;;;20.83;100.00;99695.76;1581345;90;21086;-74